Time;durP1;ratioP1;P1;durP2;ratioP2;P2;SDS_P1;SDS_P2;PMS_P1;PMS_P2;Temp;Humidity;BMP_temperature;BMP_pressure;BME280_temperature;BME280_humidity;BME280_pressure;Samples;Min_cycle;Max_cycle;Signal;HPM_P1;HPM_P2
2022/07/22 00:01:23;;;;;;;4.90;4.05;;;;;;;;;;5099054;28;20261;-62
2022/07/22 00:03:51;;;;;;;5.97;4.13;;;;;;;;;;5098570;28;20260;-63
2022/07/22 00:06:19;;;;;;;4.05;3.75;;;;;;;;;;5098519;28;20212;-63
2022/07/22 00:08:47;;;;;;;4.75;4.18;;;;;;;;;;5091971;28;20656;-63
2022/07/22 00:11:15;;;;;;;7.20;4.47;;;;;;;;;;5098522;28;20207;-63
2022/07/22 00:13:45;;;;;;;4.60;4.07;;;;;;;;;;5098248;28;20227;-62
2022/07/22 00:16:14;;;;;;;5.05;4.00;;;;;;;;;;5098269;28;20682;-62
2022/07/22 00:18:42;;;;;;;4.57;4.15;;;;;;;;;;5096219;28;20209;-63
2022/07/22 00:21:10;;;;;;;5.13;3.85;;;;;;;;;;5098008;28;20683;-62
2022/07/22 00:23:38;;;;;;;7.95;3.80;;;;;;;;;;5097835;28;20276;-62
2022/07/22 00:26:06;;;;;;;4.70;3.90;;;;;;;;;;5098314;28;20251;-63
2022/07/22 00:28:34;;;;;;;6.75;3.85;;;;;;;;;;5089738;28;20201;-62
2022/07/22 00:31:03;;;;;;;7.72;4.68;;;;;;;;;;5098295;28;20215;-62
2022/07/22 00:33:32;;;;;;;5.88;4.13;;;;;;;;;;5098047;28;20219;-63
2022/07/22 00:36:00;;;;;;;6.38;4.10;;;;;;;;;;5097762;28;20230;-63
2022/07/22 00:38:28;;;;;;;4.25;3.67;;;;;;;;;;5094440;28;20263;-62
2022/07/22 00:40:56;;;;;;;5.25;3.90;;;;;;;;;;5097793;28;20668;-62
2022/07/22 00:43:24;;;;;;;7.25;4.47;;;;;;;;;;5098111;28;20258;-62
2022/07/22 00:45:52;;;;;;;6.57;4.25;;;;;;;;;;5097893;28;20204;-62
2022/07/22 00:48:20;;;;;;;7.53;3.78;;;;;;;;;;5097821;28;20200;-62
2022/07/22 00:50:50;;;;;;;5.63;4.22;;;;;;;;;;5097833;28;20219;-62
2022/07/22 00:53:18;;;;;;;6.80;4.45;;;;;;;;;;5091736;28;20224;-62
2022/07/22 00:55:46;;;;;;;6.03;4.10;;;;;;;;;;5097052;28;20586;-62
2022/07/22 00:58:14;;;;;;;5.95;4.15;;;;;;;;;;5097917;28;20231;-62
2022/07/22 01:00:42;;;;;;;4.38;3.97;;;;;;;;;;5093031;28;20210;-62
2022/07/22 01:03:10;;;;;;;6.55;4.32;;;;;;;;;;5097886;28;20226;-63
2022/07/22 01:05:38;;;;;;;3.97;3.50;;;;;;;;;;5097587;28;20207;-63
2022/07/22 01:08:08;;;;;;;5.75;4.57;;;;;;;;;;5093235;28;20197;-62
2022/07/22 01:10:36;;;;;;;4.72;3.58;;;;;;;;;;5094028;28;20208;-62
2022/07/22 01:13:04;;;;;;;7.85;4.05;;;;;;;;;;5097673;28;20220;-62
2022/07/22 01:15:33;;;;;;;6.47;4.47;;;;;;;;;;5094446;28;20221;-63
2022/07/22 01:18:01;;;;;;;5.50;3.92;;;;;;;;;;5092476;28;20226;-62
2022/07/22 01:20:31;;;;;;;4.70;3.80;;;;;;;;;;5085768;28;20288;-63
2022/07/22 01:22:59;;;;;;;4.32;3.88;;;;;;;;;;5087810;28;20244;-63
2022/07/22 01:25:27;;;;;;;4.28;3.88;;;;;;;;;;5093613;28;20207;-62
2022/07/22 01:27:55;;;;;;;5.57;3.80;;;;;;;;;;5079166;28;20228;-62
2022/07/22 01:30:23;;;;;;;6.72;3.53;;;;;;;;;;5093164;28;20217;-62
2022/07/22 01:32:51;;;;;;;5.45;3.72;;;;;;;;;;5088008;28;20669;-62
2022/07/22 01:35:19;;;;;;;5.75;4.07;;;;;;;;;;5097113;28;20204;-63
2022/07/22 01:37:49;;;;;;;7.38;4.07;;;;;;;;;;5097587;28;20267;-63
2022/07/22 01:40:17;;;;;;;4.80;4.23;;;;;;;;;;5096910;28;20224;-62
2022/07/22 01:42:45;;;;;;;4.73;3.97;;;;;;;;;;5084259;28;20227;-63
2022/07/22 01:45:14;;;;;;;4.30;3.72;;;;;;;;;;5097322;28;20198;-62
2022/07/22 01:47:42;;;;;;;4.43;3.72;;;;;;;;;;5100184;28;20212;-62
2022/07/22 01:50:12;;;;;;;4.13;3.73;;;;;;;;;;5095235;28;20213;-62
2022/07/22 01:52:40;;;;;;;4.00;3.70;;;;;;;;;;5100033;28;20206;-63
2022/07/22 01:55:11;;;;;;;4.43;4.13;;;;;;;;;;5099370;28;20265;-62
2022/07/22 01:57:39;;;;;;;4.60;4.20;;;;;;;;;;5100074;28;20225;-62
2022/07/22 02:00:09;;;;;;;5.00;4.50;;;;;;;;;;5099201;28;20221;-62
2022/07/22 02:02:37;;;;;;;4.27;3.93;;;;;;;;;;5099662;28;20252;-62
2022/07/22 02:05:06;;;;;;;7.30;4.83;;;;;;;;;;5103357;28;20296;-62
2022/07/22 02:07:35;;;;;;;5.43;4.10;;;;;;;;;;5101817;28;20680;-62
2022/07/22 02:10:04;;;;;;;4.77;4.07;;;;;;;;;;5094119;28;20201;-62
2022/07/22 02:12:34;;;;;;;5.53;4.40;;;;;;;;;;5102673;28;20327;-63
2022/07/22 02:15:02;;;;;;;4.70;4.22;;;;;;;;;;5099825;28;20279;-62
2022/07/22 02:17:30;;;;;;;6.57;4.50;;;;;;;;;;5096922;28;20200;-63
2022/07/22 02:19:58;;;;;;;5.67;3.50;;;;;;;;;;5100476;28;20682;-63
2022/07/22 02:22:26;;;;;;;6.07;4.00;;;;;;;;;;5099133;28;20286;-62
2022/07/22 02:24:54;;;;;;;4.27;3.90;;;;;;;;;;5100792;28;20223;-63
2022/07/22 02:27:22;;;;;;;4.63;4.00;;;;;;;;;;5100479;28;20233;-63
2022/07/22 02:29:51;;;;;;;10.10;4.18;;;;;;;;;;5084914;28;20653;-62
2022/07/22 02:32:19;;;;;;;4.30;3.90;;;;;;;;;;5082689;28;20661;-63
2022/07/22 02:34:49;;;;;;;5.55;4.15;;;;;;;;;;5080749;28;20430;-62
2022/07/22 02:37:17;;;;;;;7.23;3.97;;;;;;;;;;5099750;28;20203;-62
2022/07/22 02:39:45;;;;;;;4.37;3.97;;;;;;;;;;5099815;28;20227;-62
2022/07/22 02:42:13;;;;;;;4.70;3.90;;;;;;;;;;5092819;28;20618;-62
2022/07/22 02:44:41;;;;;;;5.77;4.03;;;;;;;;;;5099710;28;20261;-62
2022/07/22 02:47:11;;;;;;;4.93;4.43;;;;;;;;;;5100085;28;20227;-62
2022/07/22 02:49:39;;;;;;;5.67;4.13;;;;;;;;;;5086820;28;20199;-63
2022/07/22 02:52:07;;;;;;;6.00;4.17;;;;;;;;;;5099842;28;20234;-62
2022/07/22 02:54:35;;;;;;;7.33;4.37;;;;;;;;;;5099575;28;20591;-62
2022/07/22 02:57:03;;;;;;;4.73;3.83;;;;;;;;;;5096068;28;20233;-62
2022/07/22 02:59:31;;;;;;;5.80;4.47;;;;;;;;;;5099703;28;20289;-62
2022/07/22 03:01:59;;;;;;;5.40;4.27;;;;;;;;;;5099801;28;20239;-62
2022/07/22 03:04:28;;;;;;;7.50;4.53;;;;;;;;;;5099693;28;20226;-62
2022/07/22 03:06:56;;;;;;;6.93;5.37;;;;;;;;;;5099634;28;20211;-62
2022/07/22 03:09:24;;;;;;;5.90;4.90;;;;;;;;;;5099518;28;20274;-62
2022/07/22 03:11:52;;;;;;;7.70;5.23;;;;;;;;;;5087310;28;20211;-62
2022/07/22 03:14:21;;;;;;;6.10;5.20;;;;;;;;;;5098497;28;20252;-63
2022/07/22 03:16:49;;;;;;;8.73;5.17;;;;;;;;;;5085836;28;20247;-62
2022/07/22 03:19:18;;;;;;;9.27;5.17;;;;;;;;;;5116806;28;20227;-62
2022/07/22 03:21:47;;;;;;;7.53;6.30;;;;;;;;;;5115382;28;20201;-62
2022/07/22 03:24:15;;;;;;;6.53;5.20;;;;;;;;;;5107071;28;20238;-62
2022/07/22 03:26:44;;;;;;;8.40;5.50;;;;;;;;;;5119633;28;20234;-62
2022/07/22 03:29:12;;;;;;;9.17;5.17;;;;;;;;;;5119761;28;20233;-62
2022/07/22 03:31:40;;;;;;;7.80;5.10;;;;;;;;;;5117752;28;20208;-62
2022/07/22 03:34:08;;;;;;;6.53;5.00;;;;;;;;;;5092612;28;20257;-62
2022/07/22 03:36:36;;;;;;;5.90;4.73;;;;;;;;;;5098690;28;20212;-62
2022/07/22 03:39:05;;;;;;;7.63;5.30;;;;;;;;;;5099176;28;20228;-62
2022/07/22 03:41:34;;;;;;;4.70;4.30;;;;;;;;;;5088760;28;20235;-61
2022/07/22 03:44:01;;;;;;;7.07;5.10;;;;;;;;;;5091268;28;20235;-62
2022/07/22 03:46:29;;;;;;;6.40;5.60;;;;;;;;;;5099116;28;20207;-62
2022/07/22 03:48:57;;;;;;;7.43;5.30;;;;;;;;;;5098805;28;20211;-62
2022/07/22 03:51:26;;;;;;;11.30;6.13;;;;;;;;;;5098446;28;20213;-62
2022/07/22 03:54:01;;;;;;;8.37;5.33;;;;;;;;;;5099292;28;20229;-62
2022/07/22 03:56:30;;;;;;;6.10;5.47;;;;;;;;;;5098559;28;20699;-62
2022/07/22 03:58:58;;;;;;;6.40;5.33;;;;;;;;;;5085330;28;20267;-62
2022/07/22 04:01:27;;;;;;;6.10;5.13;;;;;;;;;;5087571;28;20227;-62
2022/07/22 04:03:55;;;;;;;6.67;4.50;;;;;;;;;;5092420;28;20225;-62
2022/07/22 04:06:31;;;;;;;10.43;6.47;;;;;;;;;;5089437;28;20651;-62
2022/07/22 04:08:59;;;;;;;8.03;5.63;;;;;;;;;;5109980;28;20203;-62
2022/07/22 04:11:27;;;;;;;5.57;5.07;;;;;;;;;;5107041;28;20212;-62
2022/07/22 04:13:57;;;;;;;7.70;5.50;;;;;;;;;;5092868;28;20248;-62
2022/07/22 04:16:25;;;;;;;6.60;5.53;;;;;;;;;;5086175;28;20243;-62
2022/07/22 04:18:53;;;;;;;6.80;5.37;;;;;;;;;;5098001;28;20306;-62
2022/07/22 04:21:22;;;;;;;6.90;5.23;;;;;;;;;;5086453;28;20214;-62
2022/07/22 04:23:50;;;;;;;6.73;5.17;;;;;;;;;;5089101;28;20293;-62
2022/07/22 04:26:18;;;;;;;6.80;5.27;;;;;;;;;;5095767;28;20206;-62
2022/07/22 04:28:46;;;;;;;8.37;5.50;;;;;;;;;;5101953;28;20206;-62
2022/07/22 04:31:15;;;;;;;5.97;5.30;;;;;;;;;;5104121;28;20619;-62
2022/07/22 04:33:44;;;;;;;11.20;5.20;;;;;;;;;;5097712;28;20638;-62
2022/07/22 04:36:12;;;;;;;8.13;5.60;;;;;;;;;;5097536;28;20587;-62
2022/07/22 04:38:40;;;;;;;7.40;6.00;;;;;;;;;;5091626;28;20227;-62
2022/07/22 04:41:08;;;;;;;5.70;5.20;;;;;;;;;;5090818;28;20259;-62
2022/07/22 04:43:36;;;;;;;7.70;5.70;;;;;;;;;;5117907;28;20227;-62
2022/07/22 04:46:05;;;;;;;5.33;4.83;;;;;;;;;;5096842;28;20208;-62
2022/07/22 04:48:34;;;;;;;5.87;4.90;;;;;;;;;;5085306;28;20660;-62
2022/07/22 04:51:03;;;;;;;6.30;5.70;;;;;;;;;;5100247;28;20223;-61
2022/07/22 04:53:31;;;;;;;10.80;6.00;;;;;;;;;;5117935;28;20221;-62
2022/07/22 04:56:11;;;;;;;9.53;6.00;;;;;;;;;;5100195;28;20202;-62
2022/07/22 04:58:40;;;;;;;8.07;5.53;;;;;;;;;;5095459;28;20260;-61
2022/07/22 05:01:08;;;;;;;9.23;5.47;;;;;;;;;;5089747;28;20258;-61
2022/07/22 05:03:39;;;;;;;7.90;5.97;;;;;;;;;;5090759;28;20228;-61
2022/07/22 05:06:08;;;;;;;6.67;5.47;;;;;;;;;;5092378;28;20566;-61
2022/07/22 05:08:36;;;;;;;8.97;5.20;;;;;;;;;;5097592;28;20238;-61
2022/07/22 05:11:04;;;;;;;6.43;5.60;;;;;;;;;;5098734;28;20194;-61
2022/07/22 05:13:31;;;;;;;10.10;5.57;;;;;;;;;;5094022;28;20250;-61
2022/07/22 05:16:03;;;;;;;8.03;5.33;;;;;;;;;;5090684;28;20823;-61
2022/07/22 05:18:31;;;;;;;7.63;5.00;;;;;;;;;;5086300;28;20204;-61
2022/07/22 05:21:00;;;;;;;7.57;4.80;;;;;;;;;;5092717;28;20288;-61
2022/07/22 05:23:28;;;;;;;9.60;5.80;;;;;;;;;;5091475;28;20234;-64
2022/07/22 05:25:56;;;;;;;6.00;5.40;;;;;;;;;;5090391;28;20222;-65
2022/07/22 05:28:24;;;;;;;10.03;5.10;;;;;;;;;;5103544;28;20252;-65
2022/07/22 05:30:52;;;;;;;6.43;5.37;;;;;;;;;;5076043;28;20203;-65
2022/07/22 05:33:21;;;;;;;8.67;5.33;;;;;;;;;;5091097;28;20225;-65
2022/07/22 05:35:49;;;;;;;9.37;5.53;;;;;;;;;;5098129;28;20713;-64
2022/07/22 05:38:18;;;;;;;5.77;4.97;;;;;;;;;;5101391;28;20203;-65
2022/07/22 05:40:46;;;;;;;7.63;6.03;;;;;;;;;;5097890;28;20735;-65
2022/07/22 05:43:14;;;;;;;7.63;6.13;;;;;;;;;;5092285;28;20265;-65
2022/07/22 05:45:42;;;;;;;5.97;5.30;;;;;;;;;;5101121;28;20203;-65
2022/07/22 05:48:10;;;;;;;9.20;6.07;;;;;;;;;;5108181;28;20239;-65
2022/07/22 05:50:38;;;;;;;6.17;5.57;;;;;;;;;;5099350;28;20230;-65
2022/07/22 05:53:06;;;;;;;6.90;5.77;;;;;;;;;;5100923;28;20297;-64
2022/07/22 05:55:36;;;;;;;8.57;5.17;;;;;;;;;;5101052;28;20212;-65
2022/07/22 05:58:04;;;;;;;7.43;5.47;;;;;;;;;;5100808;28;20208;-64
2022/07/22 06:00:32;;;;;;;7.50;4.90;;;;;;;;;;5121126;28;20272;-64
2022/07/22 06:03:00;;;;;;;7.67;5.03;;;;;;;;;;5121041;28;20607;-64
2022/07/22 06:05:28;;;;;;;7.77;4.50;;;;;;;;;;5106159;28;20247;-65
2022/07/22 06:08:05;;;;;;;7.07;5.23;;;;;;;;;;5100658;28;20215;-64
2022/07/22 06:10:33;;;;;;;8.97;4.70;;;;;;;;;;5100807;28;20224;-65
2022/07/22 06:13:03;;;;;;;7.10;5.60;;;;;;;;;;5100360;28;20755;-64
2022/07/22 06:15:31;;;;;;;6.57;5.17;;;;;;;;;;5091119;28;20233;-65
2022/07/22 06:17:59;;;;;;;6.97;4.87;;;;;;;;;;5100743;28;20205;-64
2022/07/22 06:20:27;;;;;;;5.93;4.63;;;;;;;;;;5100092;28;20298;-64
2022/07/22 06:22:55;;;;;;;4.77;4.27;;;;;;;;;;5089893;28;20237;-64
2022/07/22 06:25:23;;;;;;;6.13;4.50;;;;;;;;;;5100164;28;20278;-64
2022/07/22 06:28:10;;;;;;;6.37;4.73;;;;;;;;;;5096575;28;20200;-65
2022/07/22 06:30:39;;;;;;;5.77;4.47;;;;;;;;;;5091866;28;20198;-65
2022/07/22 06:33:07;;;;;;;8.17;5.00;;;;;;;;;;5099105;28;20214;-65
2022/07/22 06:35:35;;;;;;;14.37;5.57;;;;;;;;;;5099985;28;20233;-64
2022/07/22 06:38:03;;;;;;;7.13;4.90;;;;;;;;;;5100163;28;20206;-64
2022/07/22 06:40:33;;;;;;;6.00;5.07;;;;;;;;;;5112729;28;20264;-64
2022/07/22 06:43:02;;;;;;;5.53;4.77;;;;;;;;;;5111753;27;20255;-63
2022/07/22 06:45:32;;;;;;;5.53;4.30;;;;;;;;;;5098520;28;20201;-64
2022/07/22 06:48:01;;;;;;;5.30;4.60;;;;;;;;;;5097294;28;20232;-63
2022/07/22 06:50:29;;;;;;;13.93;4.83;;;;;;;;;;5099965;28;20714;-63
2022/07/22 06:52:57;;;;;;;5.17;4.10;;;;;;;;;;5097492;28;20221;-63
2022/07/22 06:55:25;;;;;;;7.23;4.77;;;;;;;;;;5096078;28;20240;-63
2022/07/22 06:57:53;;;;;;;7.70;4.60;;;;;;;;;;5100683;28;20732;-63
2022/07/22 07:00:21;;;;;;;6.30;4.80;;;;;;;;;;5096150;28;20950;-63
2022/07/22 07:02:50;;;;;;;9.43;4.57;;;;;;;;;;5098458;28;20197;-63
2022/07/22 07:05:38;;;;;;;7.47;4.43;;;;;;;;;;5097519;28;20288;-63
2022/07/22 07:08:06;;;;;;;9.37;5.17;;;;;;;;;;5097336;28;20213;-63
2022/07/22 07:10:34;;;;;;;7.27;4.57;;;;;;;;;;5097082;28;20225;-63
2022/07/22 07:13:02;;;;;;;8.57;4.57;;;;;;;;;;5102412;28;20201;-62
2022/07/22 07:15:30;;;;;;;9.67;4.70;;;;;;;;;;5098361;28;20200;-64
2022/07/22 07:17:59;;;;;;;5.50;4.40;;;;;;;;;;5098334;28;20212;-64
2022/07/22 07:20:28;;;;;;;7.60;4.50;;;;;;;;;;5082786;28;20263;-65
2022/07/22 07:22:56;;;;;;;11.13;4.43;;;;;;;;;;5097577;28;20607;-64
2022/07/22 07:25:24;;;;;;;10.97;4.87;;;;;;;;;;5100507;28;20227;-65
2022/07/22 07:27:52;;;;;;;6.87;4.53;;;;;;;;;;5098405;28;20200;-65
2022/07/22 07:30:21;;;;;;;10.93;4.97;;;;;;;;;;5096279;28;20215;-65
2022/07/22 07:32:49;;;;;;;10.18;4.60;;;;;;;;;;5101744;28;20225;-65
2022/07/22 07:35:19;;;;;;;6.05;4.80;;;;;;;;;;5097283;28;20566;-65
2022/07/22 07:37:47;;;;;;;12.65;4.85;;;;;;;;;;5092808;28;20208;-65
2022/07/22 07:40:15;;;;;;;10.32;5.10;;;;;;;;;;5101880;28;20210;-65
2022/07/22 07:42:43;;;;;;;7.75;4.47;;;;;;;;;;5102751;28;20226;-67
2022/07/22 07:45:16;;;;;;;13.55;5.10;;;;;;;;;;5097377;28;20221;-65
2022/07/22 07:47:48;;;;;;;8.63;5.13;;;;;;;;;;5102371;28;20197;-66
2022/07/22 07:50:16;;;;;;;5.43;4.20;;;;;;;;;;5093532;28;20228;-66
2022/07/22 07:52:47;;;;;;;7.40;5.33;;;;;;;;;;5098245;28;20215;-67
2022/07/22 07:55:20;;;;;;;8.53;4.47;;;;;;;;;;5096450;28;20222;-66
2022/07/22 07:57:48;;;;;;;12.87;5.33;;;;;;;;;;5096203;28;20199;-64
2022/07/22 08:00:19;;;;;;;8.23;4.60;;;;;;;;;;5090683;28;20262;-66
2022/07/22 08:02:48;;;;;;;7.37;4.40;;;;;;;;;;5093993;28;20224;-67
2022/07/22 08:05:18;;;;;;;10.73;4.87;;;;;;;;;;5098568;28;20635;-67
2022/07/22 08:07:49;;;;;;;9.27;5.97;;;;;;;;;;5098957;28;20229;-63
2022/07/22 08:10:17;;;;;;;8.38;5.28;;;;;;;;;;5094430;28;20206;-64
2022/07/22 08:13:05;;;;;;;6.30;4.88;;;;;;;;;;5096579;28;20221;-65
2022/07/22 08:15:35;;;;;;;8.80;4.70;;;;;;;;;;5097654;28;20663;-65
2022/07/22 08:18:04;;;;;;;5.82;4.80;;;;;;;;;;5090973;28;20630;-66
2022/07/22 08:20:32;;;;;;;10.95;5.25;;;;;;;;;;5097943;28;20198;-64
2022/07/22 08:23:02;;;;;;;8.82;4.90;;;;;;;;;;5086406;28;20232;-64
2022/07/22 08:25:30;;;;;;;10.13;5.50;;;;;;;;;;5097056;28;20216;-64
2022/07/22 08:27:58;;;;;;;6.80;4.63;;;;;;;;;;5097762;28;20197;-65
2022/07/22 08:30:28;;;;;;;6.97;5.15;;;;;;;;;;5095317;28;20202;-65
2022/07/22 08:32:57;;;;;;;8.85;4.80;;;;;;;;;;5093432;28;20197;-65
2022/07/22 08:35:25;;;;;;;6.03;5.07;;;;;;;;;;5102062;28;20628;-65
2022/07/22 08:37:53;;;;;;;6.43;4.15;;;;;;;;;;5092683;28;20209;-65
2022/07/22 08:40:23;;;;;;;6.97;4.68;;;;;;;;;;5087345;28;20216;-64
2022/07/22 08:42:51;;;;;;;5.45;4.25;;;;;;;;;;5084428;28;20588;-64
2022/07/22 08:45:20;;;;;;;8.32;4.80;;;;;;;;;;5097734;28;20213;-64
2022/07/22 08:47:49;;;;;;;10.10;4.72;;;;;;;;;;5097624;28;20573;-64
2022/07/22 08:50:17;;;;;;;6.32;4.78;;;;;;;;;;5097809;28;20265;-64
2022/07/22 08:52:48;;;;;;;7.25;4.53;;;;;;;;;;5096777;28;20232;-66
2022/07/22 08:55:16;;;;;;;5.32;4.57;;;;;;;;;;5098048;28;20209;-66
2022/07/22 08:57:46;;;;;;;5.35;4.85;;;;;;;;;;5086525;28;20228;-65
2022/07/22 09:00:18;;;;;;;5.95;4.40;;;;;;;;;;5095798;28;20216;-65
2022/07/22 09:02:47;;;;;;;6.47;5.05;;;;;;;;;;5084291;28;20256;-64
2022/07/22 09:05:15;;;;;;;7.72;4.97;;;;;;;;;;5093599;28;20217;-65
2022/07/22 09:08:03;;;;;;;4.90;4.13;;;;;;;;;;5079479;28;20211;-64
2022/07/22 09:10:32;;;;;;;6.60;4.50;;;;;;;;;;5089082;28;20228;-64
2022/07/22 09:13:04;;;;;;;13.15;5.00;;;;;;;;;;5096039;28;20193;-64
2022/07/22 09:15:33;;;;;;;5.90;4.68;;;;;;;;;;5099516;28;20253;-67
2022/07/22 09:18:01;;;;;;;5.38;4.75;;;;;;;;;;5100579;28;20296;-67
2022/07/22 09:20:33;;;;;;;12.63;4.93;;;;;;;;;;5092799;28;20632;-67
2022/07/22 09:23:01;;;;;;;8.13;4.03;;;;;;;;;;5093003;28;20269;-66
2022/07/22 09:25:30;;;;;;;9.15;4.63;;;;;;;;;;5095427;28;20556;-65
2022/07/22 09:28:12;;;;;;;6.57;4.97;;;;;;;;;;5099255;28;20883;-64
2022/07/22 09:30:46;;;;;;;6.25;5.18;;;;;;;;;;5098499;28;20211;-64
2022/07/22 09:33:15;;;;;;;8.88;4.85;;;;;;;;;;5110600;28;20685;-64
2022/07/22 09:35:44;;;;;;;7.43;4.65;;;;;;;;;;5118886;28;20838;-64
2022/07/22 09:38:18;;;;;;;10.90;5.05;;;;;;;;;;5107508;28;20201;-64
2022/07/22 09:40:47;;;;;;;10.95;5.22;;;;;;;;;;5092013;28;20259;-64
2022/07/22 09:43:18;;;;;;;11.30;5.18;;;;;;;;;;5081701;28;20225;-64
2022/07/22 09:45:48;;;;;;;5.07;4.57;;;;;;;;;;5097605;28;20201;-64
2022/07/22 09:48:18;;;;;;;12.48;4.75;;;;;;;;;;5098837;28;20208;-64
2022/07/22 09:50:47;;;;;;;7.60;4.57;;;;;;;;;;5099753;28;20204;-64
2022/07/22 09:53:15;;;;;;;10.25;4.93;;;;;;;;;;5096383;28;20255;-64
2022/07/22 09:55:43;;;;;;;10.55;5.40;;;;;;;;;;5099879;28;20647;-64
2022/07/22 09:58:12;;;;;;;9.80;5.18;;;;;;;;;;5100852;28;20640;-64
2022/07/22 10:00:42;;;;;;;8.32;5.32;;;;;;;;;;5100967;28;20240;-64
2022/07/22 10:03:12;;;;;;;9.52;5.55;;;;;;;;;;5100678;28;20572;-64
2022/07/22 10:05:41;;;;;;;5.43;4.40;;;;;;;;;;5098708;28;20564;-64
2022/07/22 10:08:10;;;;;;;6.20;5.05;;;;;;;;;;5092634;28;20201;-64
2022/07/22 10:10:39;;;;;;;7.38;5.05;;;;;;;;;;5095437;28;20206;-64
2022/07/22 10:13:07;;;;;;;7.82;4.80;;;;;;;;;;5099837;28;20274;-63
2022/07/22 10:15:36;;;;;;;13.52;5.03;;;;;;;;;;5082148;28;20202;-64
2022/07/22 10:18:07;;;;;;;13.00;4.90;;;;;;;;;;5100506;28;20202;-63
2022/07/22 10:20:36;;;;;;;5.50;5.07;;;;;;;;;;5090414;28;20234;-63
2022/07/22 10:23:04;;;;;;;8.43;4.82;;;;;;;;;;5096488;28;20662;-64
2022/07/22 10:25:49;;;;;;;5.72;4.63;;;;;;;;;;5100343;28;20565;-65
2022/07/22 10:28:21;;;;;;;11.15;5.35;;;;;;;;;;5099605;28;20205;-71
2022/07/22 10:30:49;;;;;;;4.63;4.22;;;;;;;;;;5100583;28;20216;-70
2022/07/22 10:33:20;;;;;;;6.95;4.65;;;;;;;;;;5101986;28;20208;-69
2022/07/22 10:35:57;;;;;;;6.60;4.63;;;;;;;;;;5099464;28;20193;-69
2022/07/22 10:38:26;;;;;;;8.55;5.20;;;;;;;;;;5097640;28;20224;-69
2022/07/22 10:40:55;;;;;;;11.20;5.07;;;;;;;;;;5099904;28;20200;-69
2022/07/22 10:43:24;;;;;;;8.35;4.90;;;;;;;;;;5096074;28;20236;-69
2022/07/22 10:45:53;;;;;;;6.78;4.65;;;;;;;;;;5105537;28;20230;-70
2022/07/22 10:48:25;;;;;;;5.82;5.15;;;;;;;;;;5097122;28;20206;-69
2022/07/22 10:50:55;;;;;;;8.10;4.60;;;;;;;;;;5099800;28;20235;-69
2022/07/22 10:53:24;;;;;;;5.90;4.93;;;;;;;;;;5079457;28;20676;-70
2022/07/22 10:55:59;;;;;;;6.80;5.03;;;;;;;;;;5086059;28;20222;-69
2022/07/22 10:58:47;;;;;;;5.32;4.53;;;;;;;;;;5094455;28;20639;-68
2022/07/22 11:01:16;;;;;;;7.78;5.00;;;;;;;;;;5096821;28;20201;-69
2022/07/22 11:03:46;;;;;;;6.32;5.05;;;;;;;;;;5087332;28;20225;-68
2022/07/22 11:06:19;;;;;;;5.22;4.65;;;;;;;;;;5099658;28;20209;-69
2022/07/22 11:08:52;;;;;;;6.43;4.88;;;;;;;;;;5089547;28;20227;-68
2022/07/22 11:11:31;;;;;;;5.13;4.63;;;;;;;;;;5094891;28;20672;-68
2022/07/22 11:14:00;;;;;;;6.43;5.07;;;;;;;;;;5088007;28;20217;-68
2022/07/22 11:16:29;;;;;;;8.00;5.85;;;;;;;;;;5096336;28;20209;-68
2022/07/22 11:18:59;;;;;;;6.15;4.28;;;;;;;;;;5098351;28;20674;-68
2022/07/22 11:21:28;;;;;;;5.50;4.97;;;;;;;;;;5099372;28;20268;-68
2022/07/22 11:23:58;;;;;;;8.93;5.30;;;;;;;;;;5096785;28;20714;-68
2022/07/22 11:26:32;;;;;;;6.45;4.65;;;;;;;;;;5099254;28;20201;-68
2022/07/22 11:29:01;;;;;;;5.30;4.72;;;;;;;;;;5096356;28;20232;-68
2022/07/22 11:31:29;;;;;;;11.80;4.82;;;;;;;;;;5096976;28;20236;-68
2022/07/22 11:34:06;;;;;;;7.65;5.05;;;;;;;;;;5106924;28;20221;-68
2022/07/22 11:36:35;;;;;;;7.78;4.95;;;;;;;;;;5098312;28;20209;-68
2022/07/22 11:39:03;;;;;;;5.85;5.10;;;;;;;;;;5097926;28;20575;-69
2022/07/22 11:41:31;;;;;;;5.18;4.70;;;;;;;;;;5097767;28;20742;-67
2022/07/22 11:44:00;;;;;;;6.00;4.45;;;;;;;;;;5105503;28;20224;-67
2022/07/22 11:46:28;;;;;;;6.80;5.00;;;;;;;;;;5096247;28;20216;-67
2022/07/22 11:48:58;;;;;;;5.05;4.57;;;;;;;;;;5096389;28;20201;-67
2022/07/22 11:51:30;;;;;;;6.30;4.72;;;;;;;;;;5093237;28;20205;-67
2022/07/22 11:53:59;;;;;;;5.93;5.03;;;;;;;;;;5098325;28;20262;-67
2022/07/22 11:56:28;;;;;;;5.45;4.60;;;;;;;;;;5098870;28;20559;-67
2022/07/22 11:58:56;;;;;;;5.82;5.18;;;;;;;;;;5099543;28;20228;-67
2022/07/22 12:01:26;;;;;;;5.95;4.70;;;;;;;;;;5096896;28;20212;-68
2022/07/22 12:03:54;;;;;;;6.00;4.97;;;;;;;;;;5098344;28;20240;-67
2022/07/22 12:06:23;;;;;;;7.43;5.45;;;;;;;;;;5098425;28;20213;-67
2022/07/22 12:08:53;;;;;;;5.28;4.38;;;;;;;;;;5086533;28;20202;-67
2022/07/22 12:11:22;;;;;;;6.63;4.47;;;;;;;;;;5095029;28;20205;-64
2022/07/22 12:13:55;;;;;;;5.70;4.82;;;;;;;;;;5089740;28;20271;-66
2022/07/22 12:16:24;;;;;;;5.18;4.65;;;;;;;;;;5091981;28;20749;-66
2022/07/22 12:18:56;;;;;;;6.15;4.72;;;;;;;;;;5098271;28;20641;-66
2022/07/22 12:21:25;;;;;;;8.43;4.30;;;;;;;;;;5098108;28;20216;-67
2022/07/22 12:23:56;;;;;;;5.50;4.38;;;;;;;;;;5093303;28;20281;-66
2022/07/22 12:26:38;;;;;;;5.50;4.90;;;;;;;;;;5097937;28;20208;-66
2022/07/22 12:29:21;;;;;;;5.00;4.45;;;;;;;;;;5098016;28;20643;-66
2022/07/22 12:31:50;;;;;;;5.53;4.60;;;;;;;;;;5094308;28;20201;-66
2022/07/22 12:34:29;;;;;;;5.15;4.65;;;;;;;;;;5110740;28;20216;-66
2022/07/22 12:36:57;;;;;;;5.38;4.32;;;;;;;;;;5118436;28;20215;-66
2022/07/22 12:39:26;;;;;;;5.15;4.65;;;;;;;;;;5089725;28;20224;-66
2022/07/22 12:41:55;;;;;;;5.07;4.57;;;;;;;;;;5096810;28;20672;-66
2022/07/22 12:44:24;;;;;;;5.05;4.35;;;;;;;;;;5096128;28;20269;-65
2022/07/22 12:46:56;;;;;;;6.20;4.60;;;;;;;;;;5096700;28;20247;-65
2022/07/22 12:49:25;;;;;;;8.82;4.82;;;;;;;;;;5085539;28;20205;-66
2022/07/22 12:52:09;;;;;;;6.40;4.60;;;;;;;;;;5096273;28;20206;-65
2022/07/22 12:54:39;;;;;;;5.68;4.25;;;;;;;;;;5097904;28;20220;-66
2022/07/22 12:57:08;;;;;;;7.88;4.45;;;;;;;;;;5097964;28;20209;-66
2022/07/22 12:59:37;;;;;;;6.93;5.35;;;;;;;;;;5097918;28;20205;-66
2022/07/22 13:02:05;;;;;;;5.43;4.10;;;;;;;;;;5096878;28;20664;-66
2022/07/22 13:04:33;;;;;;;6.00;4.45;;;;;;;;;;5097530;28;20239;-66
2022/07/22 13:07:01;;;;;;;5.15;4.18;;;;;;;;;;5097614;28;20201;-65
2022/07/22 13:09:32;;;;;;;5.20;4.70;;;;;;;;;;5096447;28;20201;-66
2022/07/22 13:12:02;;;;;;;5.60;4.70;;;;;;;;;;5093241;28;20197;-65
2022/07/22 13:14:30;;;;;;;4.65;4.25;;;;;;;;;;5085180;28;20316;-66
2022/07/22 13:17:01;;;;;;;4.38;4.07;;;;;;;;;;5112536;28;20208;-65
2022/07/22 13:19:29;;;;;;;5.82;5.28;;;;;;;;;;5088203;28;20251;-65
2022/07/22 13:21:57;;;;;;;5.63;4.38;;;;;;;;;;5097660;28;20201;-66
2022/07/22 13:24:25;;;;;;;5.75;4.80;;;;;;;;;;5097266;28;20670;-66
2022/07/22 13:26:53;;;;;;;6.72;5.32;;;;;;;;;;5097258;28;20625;-66
2022/07/22 13:29:23;;;;;;;5.30;4.80;;;;;;;;;;5097466;28;20206;-64
2022/07/22 13:31:51;;;;;;;5.43;4.93;;;;;;;;;;5098994;28;20201;-66
2022/07/22 13:34:39;;;;;;;6.88;4.88;;;;;;;;;;5089284;28;20221;-66
2022/07/22 13:37:07;;;;;;;9.80;5.00;;;;;;;;;;5097134;28;20254;-64
2022/07/22 13:39:35;;;;;;;5.35;4.78;;;;;;;;;;5084015;28;20736;-64
2022/07/22 13:42:03;;;;;;;6.82;4.60;;;;;;;;;;5095014;28;20652;-64
2022/07/22 13:44:34;;;;;;;5.40;4.38;;;;;;;;;;5095080;28;20687;-64
2022/07/22 13:47:02;;;;;;;7.25;5.10;;;;;;;;;;5091686;28;20233;-64
2022/07/22 13:49:30;;;;;;;5.13;4.63;;;;;;;;;;5093473;28;20259;-64
2022/07/22 13:52:01;;;;;;;5.47;4.78;;;;;;;;;;5095630;28;20205;-64
2022/07/22 13:54:29;;;;;;;7.20;4.68;;;;;;;;;;5095550;28;20261;-64
2022/07/22 13:56:57;;;;;;;5.03;4.63;;;;;;;;;;5099094;28;20269;-64
2022/07/22 13:59:25;;;;;;;6.03;4.55;;;;;;;;;;5101187;28;20212;-64
2022/07/22 14:01:55;;;;;;;5.22;4.75;;;;;;;;;;5099433;28;20227;-64
2022/07/22 14:04:23;;;;;;;5.32;4.78;;;;;;;;;;5099467;28;20229;-65
2022/07/22 14:06:51;;;;;;;6.65;4.75;;;;;;;;;;5088322;28;20209;-64
2022/07/22 14:09:19;;;;;;;5.50;4.97;;;;;;;;;;5100128;28;20208;-64
2022/07/22 14:12:03;;;;;;;5.13;4.40;;;;;;;;;;5099990;28;20280;-64
2022/07/22 14:14:31;;;;;;;7.50;4.75;;;;;;;;;;5091924;28;20233;-64
2022/07/22 14:17:01;;;;;;;8.43;4.63;;;;;;;;;;5099409;28;20209;-63
2022/07/22 14:19:31;;;;;;;6.38;4.78;;;;;;;;;;5086500;28;20209;-64
2022/07/22 14:22:08;;;;;;;6.25;4.68;;;;;;;;;;5096830;28;20766;-64
2022/07/22 14:24:39;;;;;;;7.57;4.47;;;;;;;;;;5100261;28;20229;-64
2022/07/22 14:27:09;;;;;;;6.55;4.63;;;;;;;;;;5100187;28;20205;-63
2022/07/22 14:29:41;;;;;;;7.35;5.20;;;;;;;;;;5100365;28;20251;-64
2022/07/22 14:32:13;;;;;;;5.15;4.65;;;;;;;;;;5100123;28;20269;-64
2022/07/22 14:34:41;;;;;;;5.32;4.90;;;;;;;;;;5100245;28;20240;-64
2022/07/22 14:37:09;;;;;;;9.50;5.18;;;;;;;;;;5091883;28;20198;-64
2022/07/22 14:39:37;;;;;;;8.50;5.20;;;;;;;;;;5084247;28;20661;-64
2022/07/22 14:42:06;;;;;;;8.82;5.38;;;;;;;;;;5082523;28;20198;-63
2022/07/22 14:44:34;;;;;;;7.90;5.35;;;;;;;;;;5085874;28;20224;-63
2022/07/22 14:47:02;;;;;;;7.72;4.78;;;;;;;;;;5098571;28;20229;-63
2022/07/22 14:49:31;;;;;;;6.32;4.78;;;;;;;;;;5091939;28;20205;-64
2022/07/22 14:51:59;;;;;;;6.20;4.93;;;;;;;;;;5099684;28;20233;-63
2022/07/22 14:54:27;;;;;;;5.78;5.28;;;;;;;;;;5095660;28;20225;-64